Time;durP1;ratioP1;P1;durP2;ratioP2;P2;SDS_P1;SDS_P2;PMS_P1;PMS_P2;Temp;Humidity;BMP_temperature;BMP_pressure;BME280_temperature;BME280_humidity;BME280_pressure;Samples;Min_cycle;Max_cycle;Signal;HPM_P1;HPM_P2
2021/06/10 00:00:24;;;;;;;9.53;6.50;;;;;;;15.84;76.62;98931.17;1729922;82;21020;-77
2021/06/10 00:02:50;;;;;;;7.65;6.12;;;;;;;15.80;76.76;98925.78;1670782;85;20997;-77
2021/06/10 00:05:19;;;;;;;6.58;5.95;;;;;;;15.81;76.72;98926.16;1705292;82;21014;-77
2021/06/10 00:07:46;;;;;;;8.13;6.80;;;;;;;15.88;76.50;98928.52;1744338;82;21005;-76
2021/06/10 00:10:14;;;;;;;10.50;7.10;;;;;;;15.87;76.44;98928.17;1719052;82;21020;-77
2021/06/10 00:12:42;;;;;;;6.42;5.70;;;;;;;15.79;76.64;98924.10;1656243;85;21068;-77
2021/06/10 00:15:14;;;;;;;11.33;7.08;;;;;;;15.71;76.83;98926.75;1687366;84;21002;-77
2021/06/10 00:17:40;;;;;;;7.12;6.42;;;;;;;15.70;76.93;98926.41;1697961;84;21052;-77
2021/06/10 00:20:10;;;;;;;9.28;6.62;;;;;;;15.81;76.73;98927.97;1678360;84;21029;-77
2021/06/10 00:22:36;;;;;;;10.23;7.03;;;;;;;15.80;76.72;98924.45;1690317;84;21096;-78
2021/06/10 00:25:04;;;;;;;11.03;6.55;;;;;;;15.77;76.77;98912.78;1698784;84;22120;-77
2021/06/10 00:27:31;;;;;;;9.20;6.47;;;;;;;15.80;76.67;98912.45;1699480;84;21025;-77
2021/06/10 00:29:57;;;;;;;8.43;6.72;;;;;;;15.86;76.41;98915.84;1690724;84;21013;-76
2021/06/10 00:32:23;;;;;;;7.00;6.28;;;;;;;15.83;76.31;98913.51;1648422;86;21339;-77
2021/06/10 00:34:50;;;;;;;8.70;7.05;;;;;;;15.75;76.50;98915.28;1672117;84;21028;-77
2021/06/10 00:37:16;;;;;;;7.60;6.60;;;;;;;15.67;76.65;98912.09;1671081;86;21148;-77
2021/06/10 00:39:43;;;;;;;8.45;6.42;;;;;;;15.71;76.56;98912.09;1686579;84;21005;-77
2021/06/10 00:42:09;;;;;;;7.50;6.20;;;;;;;15.78;76.35;98917.13;1671394;84;21064;-77
2021/06/10 00:44:37;;;;;;;10.90;6.28;;;;;;;15.75;76.43;98910.77;1678074;84;21037;-77
2021/06/10 00:47:05;;;;;;;7.97;6.20;;;;;;;15.64;76.64;98916.39;1685591;84;21045;-77
2021/06/10 00:49:32;;;;;;;8.50;6.05;;;;;;;15.61;76.75;98911.39;1671972;84;21100;-77
2021/06/10 00:51:58;;;;;;;7.28;6.33;;;;;;;15.67;76.60;98914.75;1685607;84;21020;-76
2021/06/10 00:54:26;;;;;;;8.00;6.83;;;;;;;15.65;76.67;98910.07;1688374;84;21458;-76
2021/06/10 00:56:54;;;;;;;7.45;6.50;;;;;;;15.56;76.92;98907.39;1673260;84;21004;-76
2021/06/10 00:59:20;;;;;;;7.70;6.58;;;;;;;15.52;77.11;98914.02;1677954;84;21044;-76
2021/06/10 01:01:47;;;;;;;8.50;7.28;;;;;;;15.60;76.96;98912.39;1684602;84;21008;-77
2021/06/10 01:04:13;;;;;;;9.38;7.10;;;;;;;15.68;76.71;98911.10;1672061;84;21120;-77
2021/06/10 01:07:08;;;;;;;9.38;6.78;;;;;;;15.64;76.75;98903.06;1684823;84;21040;-77
2021/06/10 01:09:43;;;;;;;7.25;6.28;;;;;;;15.54;76.93;98896.05;1692027;84;21085;-77
2021/06/10 01:12:30;;;;;;;7.97;6.65;;;;;;;15.50;77.11;98896.52;1684911;85;21540;-76
2021/06/10 01:15:11;;;;;;;7.87;6.42;;;;;;;15.54;77.03;98886.72;1678979;84;21033;-77
2021/06/10 01:20:02;;;;;;;8.03;6.85;;;;;;;15.45;77.41;98890.36;1807067;79;23282;-76
2021/06/10 01:22:43;;;;;;;8.65;7.03;;;;;;;15.33;77.63;98894.29;1762492;80;21524;-77
2021/06/10 01:25:59;;;;;;;6.72;6.08;;;;;;;15.37;77.62;98892.97;1761928;81;21005;-77
2021/06/10 01:28:35;;;;;;;7.75;6.75;;;;;;;15.36;77.71;98891.33;1743857;80;20973;-77
2021/06/10 01:31:07;;;;;;;8.30;6.75;;;;;;;15.25;78.06;98893.76;1740403;80;21036;-77
2021/06/10 01:33:54;;;;;;;8.90;6.80;;;;;;;15.23;78.04;98896.59;1761909;81;21544;-77
2021/06/10 01:36:26;;;;;;;8.15;6.60;;;;;;;15.33;77.82;98895.63;1719945;82;21091;-77
2021/06/10 01:38:56;;;;;;;8.43;7.05;;;;;;;15.31;77.94;98903.78;1732958;82;21028;-76
2021/06/10 01:41:23;;;;;;;8.63;6.90;;;;;;;15.22;78.21;98908.23;1727982;82;21016;-76
2021/06/10 01:43:51;;;;;;;8.15;6.95;;;;;;;15.28;78.17;98901.92;1728342;83;21012;-76
2021/06/10 01:46:18;;;;;;;8.25;7.05;;;;;;;15.37;77.95;98907.14;1729802;82;21067;-76
2021/06/10 01:48:47;;;;;;;13.58;7.47;;;;;;;15.35;78.02;98913.63;1727986;83;21064;-77
2021/06/10 01:51:17;;;;;;;9.30;6.55;;;;;;;15.29;78.27;98918.25;1732806;82;21067;-76
2021/06/10 01:53:46;;;;;;;7.62;6.83;;;;;;;15.30;78.34;98910.61;1737142;82;21028;-77
2021/06/10 01:56:13;;;;;;;8.13;6.92;;;;;;;15.40;78.16;98912.65;1735864;82;21491;-76
2021/06/10 01:58:39;;;;;;;7.70;6.65;;;;;;;15.43;78.21;98918.98;1732118;82;20988;-76
2021/06/10 02:01:06;;;;;;;8.25;7.45;;;;;;;15.37;78.44;98915.61;1738502;82;20992;-77
2021/06/10 02:03:33;;;;;;;8.18;6.83;;;;;;;15.38;78.55;98917.29;1728143;83;21055;-76
2021/06/10 02:06:00;;;;;;;10.00;7.17;;;;;;;15.50;78.37;98908.50;1728284;83;21035;-77
2021/06/10 02:08:27;;;;;;;10.13;7.25;;;;;;;15.54;78.35;98901.38;1728491;82;21055;-76
2021/06/10 02:10:55;;;;;;;8.20;6.72;;;;;;;15.53;78.48;98910.36;1729427;82;21035;-75
2021/06/10 02:13:27;;;;;;;8.38;7.28;;;;;;;15.56;78.44;98915.39;1741102;82;21023;-75
2021/06/10 02:15:56;;;;;;;7.67;6.65;;;;;;;15.63;78.23;98907.58;1733152;82;20989;-74
2021/06/10 02:18:22;;;;;;;9.53;7.42;;;;;;;15.68;78.19;98907.10;1726361;82;21524;-75
2021/06/10 02:20:49;;;;;;;9.93;7.62;;;;;;;15.65;78.34;98907.41;1720511;83;21551;-75
2021/06/10 02:23:15;;;;;;;10.85;7.65;;;;;;;15.58;78.57;98903.23;1736996;81;20938;-75
2021/06/10 02:25:42;;;;;;;8.55;7.65;;;;;;;15.63;78.56;98904.91;1730432;81;21043;-76
2021/06/10 02:28:08;;;;;;;8.83;7.62;;;;;;;15.74;78.38;98902.43;1729448;79;20965;-76
2021/06/10 02:30:36;;;;;;;12.28;8.33;;;;;;;15.72;78.46;98906.59;1732190;83;21055;-75
2021/06/10 02:33:02;;;;;;;8.40;7.12;;;;;;;15.66;78.72;98909.08;1738823;79;20973;-76
2021/06/10 02:35:28;;;;;;;8.53;7.30;;;;;;;15.68;78.71;98902.59;1731073;79;21008;-75
2021/06/10 02:37:58;;;;;;;9.28;6.72;;;;;;;15.79;78.53;98906.77;1719860;83;21164;-75
2021/06/10 02:40:34;;;;;;;11.22;8.15;;;;;;;15.82;78.58;98908.31;1722993;83;21503;-75
2021/06/10 02:43:05;;;;;;;8.50;7.30;;;;;;;15.80;78.67;98917.78;1720838;83;21028;-75
2021/06/10 02:45:34;;;;;;;9.85;7.20;;;;;;;15.84;78.60;98917.84;1728342;83;21008;-75
2021/06/10 02:48:02;;;;;;;8.68;7.80;;;;;;;15.98;78.32;98921.69;1734860;83;21587;-76
2021/06/10 02:50:30;;;;;;;9.25;7.35;;;;;;;16.01;78.25;98912.53;1693349;83;21024;-74
2021/06/10 02:52:58;;;;;;;8.60;7.00;;;;;;;16.01;78.29;98910.72;1715298;83;21071;-75
2021/06/10 02:55:24;;;;;;;10.05;7.40;;;;;;;16.07;78.13;98909.72;1723004;83;21087;-75
2021/06/10 02:57:57;;;;;;;10.40;7.75;;;;;;;16.15;77.85;98909.72;1729039;83;21063;-74
2021/06/10 03:00:29;;;;;;;9.30;7.15;;;;;;;16.21;77.78;98911.25;1725034;83;21484;-76
2021/06/10 03:02:55;;;;;;;9.05;6.92;;;;;;;16.21;77.88;98911.73;1734043;83;21008;-74
2021/06/10 03:05:25;;;;;;;10.28;7.83;;;;;;;16.24;77.65;98906.09;1727462;83;21071;-76
2021/06/10 03:07:53;;;;;;;9.40;7.60;;;;;;;16.36;77.46;98902.59;1732098;83;20988;-74
2021/06/10 03:10:24;;;;;;;10.18;7.97;;;;;;;16.39;77.27;98907.58;1726792;83;21008;-74
2021/06/10 03:12:51;;;;;;;8.83;7.45;;;;;;;16.32;77.37;98905.26;1719448;83;21071;-75
2021/06/10 03:15:17;;;;;;;8.10;7.28;;;;;;;16.34;77.30;98901.91;1719796;83;21056;-75
2021/06/10 03:17:44;;;;;;;9.23;7.80;;;;;;;16.44;77.10;98905.24;1720099;83;21104;-75
2021/06/10 03:20:12;;;;;;;8.83;7.70;;;;;;;16.46;77.04;98905.92;1725223;83;21007;-75
2021/06/10 03:22:39;;;;;;;8.25;7.20;;;;;;;16.40;77.10;98903.91;1725394;82;21032;-75
2021/06/10 03:25:07;;;;;;;9.35;8.00;;;;;;;16.41;77.12;98906.92;1737368;82;20985;-75
2021/06/10 03:27:34;;;;;;;10.25;8.45;;;;;;;16.52;76.84;98909.27;1737493;82;21067;-75
2021/06/10 03:30:01;;;;;;;8.80;7.95;;;;;;;16.57;76.78;98907.92;1728159;82;21043;-75
2021/06/10 03:32:28;;;;;;;8.80;7.75;;;;;;;16.48;76.72;98909.27;1736927;82;21099;-74
2021/06/10 03:34:55;;;;;;;8.50;7.60;;;;;;;16.48;76.73;98907.94;1734097;82;21038;-75
2021/06/10 03:37:22;;;;;;;8.90;8.00;;;;;;;16.58;76.54;98905.59;1724976;83;21133;-75
2021/06/10 03:39:50;;;;;;;9.35;7.78;;;;;;;16.52;76.66;98909.27;1728376;82;20991;-75
2021/06/10 03:42:18;;;;;;;10.30;7.83;;;;;;;16.51;76.85;98910.77;1726426;82;20999;-75
2021/06/10 03:44:46;;;;;;;10.25;7.85;;;;;;;16.64;76.68;98907.59;1728459;82;21499;-75
2021/06/10 03:47:14;;;;;;;9.45;7.90;;;;;;;16.75;76.50;98903.73;1737983;82;21087;-75
2021/06/10 03:49:40;;;;;;;10.78;8.53;;;;;;;16.75;76.48;98905.89;1735301;82;21039;-75
2021/06/10 03:52:07;;;;;;;9.25;7.65;;;;;;;16.78;76.54;98909.58;1725175;83;21503;-75
2021/06/10 03:54:34;;;;;;;8.35;7.55;;;;;;;16.90;76.27;98914.57;1726157;82;21537;-76
2021/06/10 03:57:03;;;;;;;9.63;8.20;;;;;;;17.05;75.77;98908.90;1734841;82;21507;-76
2021/06/10 03:59:29;;;;;;;9.00;8.10;;;;;;;17.08;75.56;98919.23;1733879;82;21028;-76
2021/06/10 04:01:55;;;;;;;9.28;8.18;;;;;;;17.12;75.53;98913.90;1729002;82;21004;-76
2021/06/10 04:04:23;;;;;;;9.23;7.67;;;;;;;17.25;75.32;98907.16;1732551;82;21036;-76
2021/06/10 04:06:50;;;;;;;10.68;8.43;;;;;;;17.50;74.90;98912.75;1738141;82;21504;-76
2021/06/10 04:09:18;;;;;;;9.05;8.15;;;;;;;17.67;74.56;98900.65;1737092;82;21567;-76
2021/06/10 04:11:45;;;;;;;9.80;8.30;;;;;;;17.88;74.03;98913.42;1725201;82;21060;-76
2021/06/10 04:14:11;;;;;;;9.13;8.30;;;;;;;18.12;73.47;98899.09;1725290;82;21091;-76
2021/06/10 04:16:39;;;;;;;10.25;8.83;;;;;;;18.37;72.74;98902.92;1730948;82;21029;-76
2021/06/10 04:19:05;;;;;;;10.38;8.38;;;;;;;18.64;72.31;98895.34;1728062;82;21088;-77
2021/06/10 04:21:33;;;;;;;10.32;8.10;;;;;;;19.00;70.77;98896.02;1719984;83;22051;-77
2021/06/10 04:24:01;;;;;;;9.45;8.40;;;;;;;19.37;70.04;98898.29;1722053;83;21044;-77
2021/06/10 04:26:28;;;;;;;9.80;8.50;;;;;;;19.77;68.73;98898.80;1720127;83;21579;-76
2021/06/10 04:28:54;;;;;;;9.20;7.50;;;;;;;20.14;67.15;98902.83;1719987;83;21023;-76
2021/06/10 04:31:21;;;;;;;11.97;9.35;;;;;;;20.37;66.42;98902.66;1715283;83;21021;-76
2021/06/10 04:33:47;;;;;;;12.75;9.10;;;;;;;20.49;65.19;98900.77;1719745;83;20980;-76
2021/06/10 04:36:14;;;;;;;9.40;8.05;;;;;;;20.39;64.89;98900.59;1719765;83;21107;-76
2021/06/10 04:38:41;;;;;;;8.15;7.35;;;;;;;20.61;65.02;98906.80;1721474;83;21075;-76
2021/06/10 04:41:08;;;;;;;9.63;7.62;;;;;;;21.05;64.45;98903.53;1726546;83;20992;-76
2021/06/10 04:43:34;;;;;;;10.20;7.65;;;;;;;21.69;63.20;98903.46;1719684;83;21136;-77
2021/06/10 04:46:00;;;;;;;11.80;8.75;;;;;;;22.15;61.61;98896.56;1714424;83;21118;-77
2021/06/10 04:48:27;;;;;;;10.00;8.93;;;;;;;22.33;60.55;98898.16;1722307;83;21015;-76
2021/06/10 04:50:53;;;;;;;9.28;8.00;;;;;;;22.27;59.72;98903.01;1725414;82;21567;-79
2021/06/10 04:53:21;;;;;;;9.50;8.50;;;;;;;22.22;59.99;98898.23;1719618;83;21062;-77
2021/06/10 04:55:47;;;;;;;11.15;8.75;;;;;;;22.32;59.40;98896.48;1719230;83;21003;-76
2021/06/10 04:58:13;;;;;;;9.28;7.62;;;;;;;22.42;59.36;98896.95;1719551;83;21064;-77
2021/06/10 05:00:40;;;;;;;8.88;8.03;;;;;;;22.81;58.59;98897.67;1721896;83;21300;-76
2021/06/10 05:03:07;;;;;;;9.68;7.78;;;;;;;23.22;57.91;98903.34;1719285;83;21043;-76
2021/06/10 05:05:34;;;;;;;8.60;7.67;;;;;;;23.63;57.25;98902.19;1719890;83;21020;-75
2021/06/10 05:08:01;;;;;;;10.00;7.58;;;;;;;23.92;55.62;98893.25;1716697;83;21008;-75
2021/06/10 05:10:27;;;;;;;10.85;8.18;;;;;;;23.89;55.33;98895.01;1701633;82;21044;-77
2021/06/10 05:12:53;;;;;;;8.95;8.05;;;;;;;23.70;55.72;98902.97;1719375;83;21053;-77
2021/06/10 05:15:20;;;;;;;7.92;7.15;;;;;;;23.56;55.78;98900.03;1717052;83;21536;-77
2021/06/10 05:17:46;;;;;;;9.28;7.75;;;;;;;23.64;55.92;98894.38;1713855;83;21564;-78
2021/06/10 05:20:15;;;;;;;8.28;7.30;;;;;;;23.88;55.32;98902.80;1709174;83;21599;-78
2021/06/10 05:22:41;;;;;;;8.63;7.72;;;;;;;23.85;54.88;98899.16;1706141;84;21604;-77
2021/06/10 05:25:08;;;;;;;8.18;6.45;;;;;;;23.71;54.71;98904.63;1711427;84;20993;-77
2021/06/10 05:27:35;;;;;;;8.28;7.45;;;;;;;23.73;54.99;98909.31;1686092;84;21060;-77
2021/06/10 05:30:06;;;;;;;8.23;6.83;;;;;;;23.84;54.87;98908.33;1706220;84;21037;-76
2021/06/10 05:32:32;;;;;;;8.70;7.12;;;;;;;23.96;54.35;98898.51;1710514;83;21060;-77
2021/06/10 05:35:00;;;;;;;7.20;6.50;;;;;;;24.12;53.88;98894.48;1711591;84;21071;-77
2021/06/10 05:37:28;;;;;;;9.03;6.40;;;;;;;24.30;53.05;98895.09;1711695;84;21127;-76
2021/06/10 05:39:54;;;;;;;8.28;6.60;;;;;;;24.37;53.31;98901.29;1707537;84;21029;-76
2021/06/10 05:42:20;;;;;;;7.40;6.05;;;;;;;24.46;52.95;98901.00;1706289;84;21028;-76
2021/06/10 05:44:47;;;;;;;7.58;5.78;;;;;;;24.63;52.65;98902.13;1705896;84;21096;-76
2021/06/10 05:47:14;;;;;;;7.10;6.17;;;;;;;24.78;52.60;98903.69;1705997;84;21076;-76
2021/06/10 05:49:40;;;;;;;7.70;6.28;;;;;;;24.95;52.49;98906.14;1705987;84;21069;-76
2021/06/10 05:52:06;;;;;;;8.23;6.28;;;;;;;25.09;51.69;98904.64;1709126;84;21008;-76
2021/06/10 05:54:33;;;;;;;6.83;5.37;;;;;;;25.02;51.09;98901.47;1712660;83;21472;-76
2021/06/10 05:56:59;;;;;;;6.87;6.17;;;;;;;24.82;50.71;98904.89;1710826;84;21521;-76
2021/06/10 05:59:30;;;;;;;7.80;6.95;;;;;;;24.49;50.90;98908.66;1712085;84;21088;-76
2021/06/10 06:01:57;;;;;;;6.87;6.17;;;;;;;24.14;51.53;98904.53;1710979;84;21017;-75
2021/06/10 06:04:23;;;;;;;10.05;6.70;;;;;;;23.84;52.63;98910.49;1710815;84;20992;-76
2021/06/10 06:06:50;;;;;;;7.20;6.50;;;;;;;23.61;53.30;98907.47;1712156;84;21571;-76
2021/06/10 06:09:17;;;;;;;7.90;7.10;;;;;;;23.37;54.02;98913.89;1712353;84;21524;-76
2021/06/10 06:11:43;;;;;;;7.20;6.50;;;;;;;23.32;54.36;98913.17;1712655;83;21032;-76
2021/06/10 06:14:13;;;;;;;8.10;5.22;;;;;;;23.44;54.71;98912.52;1708704;83;21517;-76
2021/06/10 06:16:42;;;;;;;7.95;5.33;;;;;;;23.66;53.73;98919.83;1705888;84;21030;-77
2021/06/10 06:19:14;;;;;;;7.30;4.97;;;;;;;23.72;52.75;98909.00;1708608;83;21540;-75
2021/06/10 06:21:40;;;;;;;7.45;4.83;;;;;;;23.69;52.50;98902.66;1711542;83;21009;-76
2021/06/10 06:24:07;;;;;;;6.22;4.67;;;;;;;23.87;52.21;98909.23;1717344;83;21029;-76
2021/06/10 06:26:35;;;;;;;5.78;4.75;;;;;;;23.97;51.11;98908.27;1706505;84;21061;-76
2021/06/10 06:29:03;;;;;;;6.42;5.05;;;;;;;24.04;50.94;98913.13;1707983;84;20989;-75
2021/06/10 06:31:31;;;;;;;7.62;4.90;;;;;;;24.15;51.14;98907.55;1713151;83;21004;-76
2021/06/10 06:33:57;;;;;;;6.80;4.97;;;;;;;24.27;50.73;98903.64;1719824;83;20981;-77
2021/06/10 06:36:25;;;;;;;7.53;5.87;;;;;;;24.34;50.84;98902.24;1711972;84;21622;-76
2021/06/10 06:38:52;;;;;;;6.50;4.72;;;;;;;24.38;51.47;98902.92;1710351;83;21499;-75
2021/06/10 06:41:19;;;;;;;5.03;4.53;;;;;;;24.53;50.69;98900.44;1683459;85;21544;-75
2021/06/10 06:43:46;;;;;;;7.17;4.92;;;;;;;24.55;49.53;98902.38;1708502;82;21517;-78
2021/06/10 06:46:13;;;;;;;5.25;4.75;;;;;;;24.41;49.86;98894.08;1704778;82;21036;-77
2021/06/10 06:48:39;;;;;;;7.40;5.42;;;;;;;24.27;49.61;98864.48;1703959;84;21016;-76
2021/06/10 06:51:06;;;;;;;6.17;4.97;;;;;;;24.47;49.97;98897.27;1680535;84;21080;-75
2021/06/10 06:53:32;;;;;;;6.30;4.15;;;;;;;24.47;49.98;98890.51;1692918;84;21028;-76
2021/06/10 06:56:01;;;;;;;5.78;4.50;;;;;;;24.59;49.95;98902.27;1710445;84;21497;-76
2021/06/10 06:58:28;;;;;;;5.35;4.40;;;;;;;24.72;48.19;98901.87;1710311;84;21116;-77
2021/06/10 07:00:54;;;;;;;6.53;4.20;;;;;;;24.66;47.52;98903.05;1710826;84;21085;-76
2021/06/10 07:03:23;;;;;;;5.58;4.45;;;;;;;24.57;48.81;98903.00;1710224;84;21043;-77
2021/06/10 07:05:52;;;;;;;5.08;4.05;;;;;;;24.45;48.40;98906.10;1708062;82;21055;-78
2021/06/10 07:08:20;;;;;;;5.05;4.30;;;;;;;24.37;48.85;98916.15;1712292;84;21573;-78
2021/06/10 07:10:53;;;;;;;4.97;4.00;;;;;;;24.33;48.41;98909.50;1712569;83;21066;-77
2021/06/10 07:13:14;;;;;;;6.47;4.62;;;;;;;24.20;48.57;98909.06;1711523;83;21036;-77
2021/06/10 07:15:42;;;;;;;6.12;4.87;;;;;;;24.02;48.96;98908.98;1711924;83;21107;-78
2021/06/10 07:18:08;;;;;;;5.50;4.40;;;;;;;23.92;49.53;98908.09;1712304;84;20993;-75
2021/06/10 07:20:35;;;;;;;5.85;4.50;;;;;;;23.87;50.25;98909.23;1716563;83;21044;-76
2021/06/10 07:23:01;;;;;;;5.47;4.45;;;;;;;23.79;49.94;98904.09;1726642;82;21576;-77
2021/06/10 07:25:29;;;;;;;5.60;4.95;;;;;;;23.76;50.06;98901.81;1736078;82;20981;-77
2021/06/10 07:27:56;;;;;;;5.75;5.00;;;;;;;23.72;50.67;98907.65;1691337;82;20996;-76
2021/06/10 07:30:23;;;;;;;5.15;4.65;;;;;;;23.75;50.30;98898.80;1732466;82;21019;-76
2021/06/10 07:32:50;;;;;;;5.42;4.92;;;;;;;23.68;50.28;98910.98;1718529;83;20998;-77
2021/06/10 07:35:21;;;;;;;6.55;5.53;;;;;;;23.61;50.45;98911.02;1734083;82;21100;-77
2021/06/10 07:37:46;;;;;;;6.05;5.45;;;;;;;23.56;50.99;98904.89;1745646;82;21093;-77
2021/06/10 07:40:13;;;;;;;6.33;5.72;;;;;;;23.63;51.00;98902.19;1722048;82;21485;-76
2021/06/10 07:42:41;;;;;;;5.47;4.97;;;;;;;23.75;51.53;98902.84;1718369;83;21021;-77
2021/06/10 07:45:08;;;;;;;5.92;5.25;;;;;;;23.84;52.33;98905.09;1717489;82;21491;-76
2021/06/10 07:47:35;;;;;;;6.00;5.40;;;;;;;24.00;51.94;98912.41;1719568;82;21117;-76
2021/06/10 07:50:02;;;;;;;9.53;5.30;;;;;;;24.08;51.51;98907.28;1731960;82;21011;-76
2021/06/10 07:52:29;;;;;;;6.42;5.45;;;;;;;24.15;51.99;98906.73;1711409;82;21029;-76
2021/06/10 07:54:55;;;;;;;7.55;4.95;;;;;;;24.27;51.16;98907.70;1709453;82;21029;-75
2021/06/10 07:57:22;;;;;;;5.05;4.42;;;;;;;24.32;50.61;98907.02;1719872;83;21542;-75
2021/06/10 07:59:49;;;;;;;5.97;5.12;;;;;;;24.28;50.72;98910.68;1723360;82;21016;-76
2021/06/10 08:02:15;;;;;;;6.03;5.33;;;;;;;24.13;50.22;98916.41;1719405;82;21055;-75
2021/06/10 08:04:41;;;;;;;8.30;5.50;;;;;;;23.94;50.48;98918.67;1710470;82;21045;-74
2021/06/10 08:07:09;;;;;;;6.08;4.65;;;;;;;23.87;50.76;98921.38;1741904;82;21013;-74
2021/06/10 08:09:35;;;;;;;5.78;4.50;;;;;;;23.91;51.52;98915.88;1721898;83;21038;-76
2021/06/10 08:12:02;;;;;;;4.95;4.33;;;;;;;23.89;51.00;98917.42;1709049;82;21013;-75
2021/06/10 08:14:28;;;;;;;8.00;4.70;;;;;;;23.83;51.54;98910.72;1682901;85;21075;-75
2021/06/10 08:16:55;;;;;;;5.30;4.30;;;;;;;23.84;51.44;98911.03;1734187;82;21544;-75
2021/06/10 08:19:22;;;;;;;5.25;4.67;;;;;;;23.80;51.36;98907.08;1720471;82;21488;-76
2021/06/10 08:21:48;;;;;;;6.90;4.80;;;;;;;23.80;51.11;98913.83;1719503;83;21516;-76
2021/06/10 08:24:15;;;;;;;5.10;4.60;;;;;;;23.79;50.71;98898.16;1726008;82;20997;-75
2021/06/10 08:26:43;;;;;;;5.65;4.78;;;;;;;23.71;51.54;98906.52;1721807;82;22419;-75
2021/06/10 08:29:11;;;;;;;5.80;5.20;;;;;;;23.61;52.15;98911.02;1716151;83;20984;-73
2021/06/10 08:31:37;;;;;;;5.90;4.75;;;;;;;23.50;52.48;98906.27;1697431;82;21036;-75
2021/06/10 08:34:05;;;;;;;6.78;5.22;;;;;;;23.39;52.79;98904.55;1721969;83;21052;-75
2021/06/10 08:36:31;;;;;;;5.28;4.70;;;;;;;23.25;52.49;98905.63;1713350;82;21349;-74
2021/06/10 08:38:58;;;;;;;5.50;4.80;;;;;;;23.05;52.75;98908.33;1663777;85;21051;-75
2021/06/10 08:41:26;;;;;;;6.62;5.25;;;;;;;22.90;52.59;98907.20;1680587;85;21037;-76
2021/06/10 08:43:57;;;;;;;5.95;5.35;;;;;;;22.78;53.14;98903.50;1667251;84;21624;-75
2021/06/10 08:46:23;;;;;;;6.65;5.40;;;;;;;22.73;53.95;98902.23;1658803;85;20997;-76
2021/06/10 08:48:51;;;;;;;6.30;5.70;;;;;;;22.75;54.48;98901.52;1669939;84;21485;-77
2021/06/10 08:51:19;;;;;;;6.70;4.95;;;;;;;22.70;54.06;98901.31;1671174;84;20996;-76
2021/06/10 08:53:46;;;;;;;9.28;6.10;;;;;;;22.64;54.56;98910.22;1683732;85;21029;-76
2021/06/10 08:56:13;;;;;;;9.53;5.60;;;;;;;22.67;54.38;98909.80;1657146;85;21584;-76
2021/06/10 08:58:43;;;;;;;10.00;5.65;;;;;;;22.75;53.59;98908.25;1655188;86;21532;-73
2021/06/10 09:01:15;;;;;;;6.90;5.42;;;;;;;22.78;53.42;98910.23;1666456;85;21699;-74
2021/06/10 09:03:43;;;;;;;7.42;5.92;;;;;;;22.81;53.12;98904.41;1707916;82;21069;-73
2021/06/10 09:06:14;;;;;;;5.92;5.28;;;;;;;22.83;53.14;98899.66;1685577;84;21588;-74
2021/06/10 09:08:48;;;;;;;6.62;5.25;;;;;;;22.85;52.27;98900.25;1689898;82;21077;-74
2021/06/10 09:11:19;;;;;;;5.58;4.87;;;;;;;22.90;52.32;98894.56;1692457;82;21607;-74
2021/06/10 09:13:58;;;;;;;7.58;5.33;;;;;;;23.02;51.60;98891.23;1692079;85;21579;-74
2021/06/10 09:16:37;;;;;;;6.87;5.70;;;;;;;23.01;51.40;98890.39;1715024;82;21500;-76
2021/06/10 09:19:16;;;;;;;6.53;5.65;;;;;;;22.99;51.33;98888.44;1685708;85;21033;-76
2021/06/10 09:21:55;;;;;;;9.18;6.08;;;;;;;22.87;51.97;98892.80;1665516;85;21109;-76
2021/06/10 09:24:35;;;;;;;9.60;6.15;;;;;;;22.72;52.94;98893.86;1675319;85;21036;-74
2021/06/10 09:27:12;;;;;;;8.13;6.00;;;;;;;22.53;65.76;98907.64;1683654;83;21587;-76
2021/06/10 09:29:52;;;;;;;7.05;5.62;;;;;;;21.98;67.18;98905.53;1663153;84;21113;-76
2021/06/10 09:32:30;;;;;;;6.33;5.12;;;;;;;21.23;69.76;98898.17;1673330;85;21075;-75
2021/06/10 09:35:05;;;;;;;6.28;5.60;;;;;;;20.78;70.52;98903.34;1654177;84;21036;-76
2021/06/10 09:37:36;;;;;;;7.45;5.45;;;;;;;20.57;71.34;98897.45;1655177;86;21048;-75
2021/06/10 09:40:15;;;;;;;6.67;5.90;;;;;;;20.38;72.38;98900.27;1662386;85;21057;-74
2021/06/10 09:42:42;;;;;;;6.85;5.83;;;;;;;20.40;73.01;98896.90;1677987;84;21033;-74
2021/06/10 09:45:12;;;;;;;6.53;5.70;;;;;;;20.46;72.20;98901.50;1690193;85;21041;-73
2021/06/10 09:47:47;;;;;;;10.72;5.83;;;;;;;20.48;72.81;98903.98;1676046;84;20992;-74
2021/06/10 09:50:26;;;;;;;5.83;5.15;;;;;;;20.39;70.76;98904.63;1690653;85;21023;-74
2021/06/10 09:53:00;;;;;;;8.68;6.10;;;;;;;20.38;68.34;98902.95;1690636;85;21182;-77
2021/06/10 09:55:34;;;;;;;8.85;5.80;;;;;;;20.37;68.06;98915.24;1687960;85;21045;-76
2021/06/10 09:58:23;;;;;;;9.73;6.50;;;;;;;20.30;68.60;98916.53;1690346;85;21035;-77
2021/06/10 10:01:17;;;;;;;7.95;5.05;;;;;;;20.32;68.49;98915.84;1664523;85;21083;-75
2021/06/10 10:03:46;;;;;;;8.65;5.53;;;;;;;20.49;65.11;98910.17;1687181;83;21529;-76
2021/06/10 10:06:23;;;;;;;6.67;5.55;;;;;;;20.33;64.21;98913.97;1686635;83;21496;-76
2021/06/10 10:08:56;;;;;;;6.25;5.12;;;;;;;20.22;64.59;98926.06;1689539;83;21518;-75
2021/06/10 10:11:23;;;;;;;6.35;5.70;;;;;;;20.18;65.33;98921.58;1692870;83;21092;-75
2021/06/10 10:13:54;;;;;;;7.60;5.80;;;;;;;20.24;65.79;98924.00;1695352;83;21029;-76
2021/06/10 10:16:31;;;;;;;7.10;6.33;;;;;;;20.21;66.38;98917.68;1690230;84;21034;-75
2021/06/10 10:18:58;;;;;;;7.62;5.67;;;;;;;20.18;66.61;98916.70;1685195;83;21056;-75
2021/06/10 10:21:27;;;;;;;7.12;6.42;;;;;;;20.24;66.78;98911.42;1674289;83;21012;-75
2021/06/10 10:24:01;;;;;;;8.83;6.75;;;;;;;20.30;67.25;98898.55;1677661;85;21030;-75
2021/06/10 10:26:29;;;;;;;7.70;6.25;;;;;;;20.29;67.57;98896.06;1714650;82;21032;-75
2021/06/10 10:29:02;;;;;;;8.93;7.35;;;;;;;20.30;67.80;98890.50;1721270;83;21179;-75
2021/06/10 10:31:29;;;;;;;10.30;7.33;;;;;;;20.43;67.82;98888.44;1718786;82;20985;-76
2021/06/10 10:33:55;;;;;;;9.00;7.00;;;;;;;20.57;67.84;98885.36;1672213;85;20987;-76
2021/06/10 10:36:33;;;;;;;10.65;8.03;;;;;;;20.59;68.02;98883.84;1660324;85;21120;-76
2021/06/10 10:39:07;;;;;;;10.08;6.78;;;;;;;20.57;68.06;98881.86;1663200;85;21049;-77
2021/06/10 10:41:35;;;;;;;7.55;6.72;;;;;;;20.71;67.40;98882.30;1675326;85;21542;-75
2021/06/10 10:44:11;;;;;;;11.22;7.12;;;;;;;20.74;66.38;98879.24;1655276;85;21089;-76
2021/06/10 10:46:37;;;;;;;7.95;7.15;;;;;;;20.71;65.93;98879.61;1703404;82;21040;-75
2021/06/10 10:49:22;;;;;;;8.53;6.55;;;;;;;20.69;65.44;98880.31;1717233;82;20976;-75
2021/06/10 10:51:48;;;;;;;6.92;6.15;;;;;;;20.71;65.03;98875.59;1713358;82;21011;-75
2021/06/10 10:54:37;;;;;;;8.83;6.35;;;;;;;20.83;64.19;98877.73;1665271;85;21043;-75
2021/06/10 10:57:04;;;;;;;8.10;6.70;;;;;;;20.91;64.07;98881.63;1727060;82;21047;-75
2021/06/10 10:59:41;;;;;;;11.12;6.90;;;;;;;21.03;64.91;98888.11;1710643;82;21000;-76
2021/06/10 11:02:11;;;;;;;9.25;6.70;;;;;;;21.23;64.83;98883.38;1712798;84;21055;-76
2021/06/10 11:04:53;;;;;;;8.08;6.00;;;;;;;21.57;65.30;98887.07;1706477;82;21564;-76
2021/06/10 11:07:43;;;;;;;7.92;7.12;;;;;;;21.91;64.02;98879.95;1711725;84;21550;-75
2021/06/10 11:10:18;;;;;;;7.37;6.67;;;;;;;22.01;63.20;98875.01;1717893;82;21023;-76
2021/06/10 11:12:52;;;;;;;8.10;6.42;;;;;;;22.14;63.83;98877.42;1716361;82;21577;-76
2021/06/10 11:15:29;;;;;;;9.05;6.12;;;;;;;22.30;63.45;98878.34;1715302;84;21564;-75
2021/06/10 11:18:02;;;;;;;7.70;6.90;;;;;;;22.42;62.55;98871.35;1711550;82;21080;-75
2021/06/10 11:20:40;;;;;;;7.75;5.97;;;;;;;22.48;61.34;98872.41;1715045;83;21056;-75
2021/06/10 11:23:27;;;;;;;6.65;5.40;;;;;;;22.41;60.11;98875.08;1711971;82;21052;-75
2021/06/10 11:25:58;;;;;;;6.20;5.55;;;;;;;22.29;59.74;98869.98;1719532;83;21595;-75
2021/06/10 11:28:29;;;;;;;7.40;5.00;;;;;;;22.15;58.38;98870.98;1719771;82;21004;-75
2021/06/10 11:31:20;;;;;;;6.00;5.40;;;;;;;21.96;58.39;98876.63;1664563;85;21057;-76
2021/06/10 11:33:51;;;;;;;7.00;5.12;;;;;;;21.82;58.58;98871.77;1663551;85;21065;-75
2021/06/10 11:36:19;;;;;;;5.83;5.23;;;;;;;21.71;58.27;98865.91;1688637;83;21639;-75
2021/06/10 11:38:52;;;;;;;7.28;5.20;;;;;;;21.66;58.14;98864.33;1662845;85;21618;-76
2021/06/10 11:41:25;;;;;;;5.85;5.22;;;;;;;21.64;58.36;98859.69;1687174;83;21473;-76
2021/06/10 11:43:55;;;;;;;6.43;5.03;;;;;;;21.65;58.29;98865.39;1662706;85;21591;-74